Upland, CA (91786)

2:36 PM PDT on July 26, 2016 (GMT -0700)
NW Ontario | | Change Station

Elev 1066 ft 34.07 °N, 117.66 °W | Updated 14 minutes ago

Partly Cloudy
Partly Cloudy
101.5 °F
Feels Like 102 °F
N
7.8
Wind Variable Wind from WSW

Today
High -- | Low -- °F
--% Chance of Precip.
Yesterday
High -- | Low -- °F
Precip. -- in
Pressure 29.80 in
Visibility 10.0 miles
Clouds Few 9000 ft
Few 12000 ft
Heat Index 102 °F
Dew Point 59 °F
Humidity 25%
Rainfall 0.00 in
Snow Depth Not available.
5:58 AM 7:55 PM
Waning Gibbous, 51% visible
METAR KONT 262053Z 25009G19KT 10SM FEW090 FEW120 38/09 A2986 RMK AO2 SLP089 T03780089 58016
Pressure 29.80 in
Visibility 10.0 miles
Clouds Few 9000 ft
Few 12000 ft
Heat Index 102 °F
Dew Point 59 °F
Humidity 25%
Rainfall 0.00 in
Snow Depth Not available.
5:58 AM 7:55 PM
Waning Gibbous, 51% visible
METAR KONT 262053Z 25009G19KT 10SM FEW090 FEW120 38/09 A2986 RMK AO2 SLP089 T03780089 58016

10-Day Weather Forecast

Almanac

Astronomy

Jul. 26, 2016 Rise Set
Actual Time
Civil Twilight
Nautical Twilight
Astronomical Twilight
Moon
Length of Visible Light
Length of Day
Tomorrow will be .
, % of the Moon is Illuminated

Today's Extremes

State Highs State Lows

Community

WunderPhotos

Upload Photos

1,927,702 photos uploaded!

WunderBlog® & News

Nearby

Air Quality

  Air Quality AQ Index Pollutant
Not available.

Snow Depth

Station Depth Elevation

Earthquake Activity

City Distance Mag. Time & Date
Minimum magnitude displayed is 2.5.

Coastal Water Temperatures

Place Temperature

Stations

Nearby Weather Stations

Station Location Temp. Windchill Dew Point Humidity Wind Precip. Elev Updated Type
                   

Watches & Warnings

There are currently no watches in effect.